sensor_id;sensor_type;location;lat;lon;timestamp;P1;durP1;ratioP1;P2;durP2;ratioP2
53309;SDS011;39197;53.200;5.792;2023-04-24T00:02:02;5.80;;;4.70;;
53309;SDS011;39197;53.200;5.792;2023-04-24T00:04:28;5.03;;;4.53;;
53309;SDS011;39197;53.200;5.792;2023-04-24T00:06:55;6.97;;;4.47;;
53309;SDS011;39197;53.200;5.792;2023-04-24T00:09:22;15.60;;;9.15;;
53309;SDS011;39197;53.200;5.792;2023-04-24T00:11:48;12.05;;;9.25;;
53309;SDS011;39197;53.200;5.792;2023-04-24T00:14:13;6.03;;;5.53;;
53309;SDS011;39197;53.200;5.792;2023-04-24T00:16:39;6.15;;;5.20;;
53309;SDS011;39197;53.200;5.792;2023-04-24T00:19:04;6.07;;;5.05;;
53309;SDS011;39197;53.200;5.792;2023-04-24T00:21:31;7.60;;;5.97;;
53309;SDS011;39197;53.200;5.792;2023-04-24T00:23:57;7.13;;;6.18;;
53309;SDS011;39197;53.200;5.792;2023-04-24T00:26:23;8.40;;;6.78;;
53309;SDS011;39197;53.200;5.792;2023-04-24T00:28:49;9.75;;;7.88;;
53309;SDS011;39197;53.200;5.792;2023-04-24T00:31:14;11.10;;;8.82;;
53309;SDS011;39197;53.200;5.792;2023-04-24T00:33:40;7.53;;;6.90;;
53309;SDS011;39197;53.200;5.792;2023-04-24T00:36:06;7.28;;;6.47;;
53309;SDS011;39197;53.200;5.792;2023-04-24T00:38:32;8.93;;;7.70;;
53309;SDS011;39197;53.200;5.792;2023-04-24T00:40:58;8.73;;;6.78;;
53309;SDS011;39197;53.200;5.792;2023-04-24T00:43:23;8.38;;;6.47;;
53309;SDS011;39197;53.200;5.792;2023-04-24T00:45:49;7.95;;;7.15;;
53309;SDS011;39197;53.200;5.792;2023-04-24T00:48:15;10.43;;;9.27;;
53309;SDS011;39197;53.200;5.792;2023-04-24T00:50:41;18.67;;;13.07;;
53309;SDS011;39197;53.200;5.792;2023-04-24T00:53:07;12.98;;;9.40;;
53309;SDS011;39197;53.200;5.792;2023-04-24T00:55:33;8.25;;;7.45;;
53309;SDS011;39197;53.200;5.792;2023-04-24T00:57:58;7.63;;;7.03;;
53309;SDS011;39197;53.200;5.792;2023-04-24T01:00:24;8.80;;;7.28;;
53309;SDS011;39197;53.200;5.792;2023-04-24T01:02:50;8.77;;;7.50;;
53309;SDS011;39197;53.200;5.792;2023-04-24T01:05:17;7.35;;;6.65;;
53309;SDS011;39197;53.200;5.792;2023-04-24T01:07:44;9.02;;;7.78;;
53309;SDS011;39197;53.200;5.792;2023-04-24T01:10:13;7.72;;;6.93;;
53309;SDS011;39197;53.200;5.792;2023-04-24T01:12:39;8.70;;;7.90;;
53309;SDS011;39197;53.200;5.792;2023-04-24T01:15:05;7.85;;;7.25;;
53309;SDS011;39197;53.200;5.792;2023-04-24T01:17:32;10.05;;;8.43;;
53309;SDS011;39197;53.200;5.792;2023-04-24T01:19:58;8.85;;;8.10;;
53309;SDS011;39197;53.200;5.792;2023-04-24T01:22:25;9.80;;;8.80;;
53309;SDS011;39197;53.200;5.792;2023-04-24T01:24:52;9.27;;;8.38;;
53309;SDS011;39197;53.200;5.792;2023-04-24T01:27:18;10.20;;;9.20;;
53309;SDS011;39197;53.200;5.792;2023-04-24T01:29:45;9.23;;;8.20;;
53309;SDS011;39197;53.200;5.792;2023-04-24T01:32:10;9.38;;;8.52;;
53309;SDS011;39197;53.200;5.792;2023-04-24T01:34:37;8.70;;;7.90;;
53309;SDS011;39197;53.200;5.792;2023-04-24T01:37:03;8.52;;;7.60;;
53309;SDS011;39197;53.200;5.792;2023-04-24T01:39:30;9.52;;;8.57;;
53309;SDS011;39197;53.200;5.792;2023-04-24T01:41:56;9.07;;;8.38;;
53309;SDS011;39197;53.200;5.792;2023-04-24T01:44:22;9.63;;;8.82;;
53309;SDS011;39197;53.200;5.792;2023-04-24T01:46:48;9.98;;;9.18;;
53309;SDS011;39197;53.200;5.792;2023-04-24T01:49:14;14.52;;;9.13;;
53309;SDS011;39197;53.200;5.792;2023-04-24T01:51:39;9.88;;;8.98;;
53309;SDS011;39197;53.200;5.792;2023-04-24T01:54:05;9.45;;;8.65;;
53309;SDS011;39197;53.200;5.792;2023-04-24T01:56:31;9.30;;;8.50;;
53309;SDS011;39197;53.200;5.792;2023-04-24T01:58:58;10.65;;;9.65;;
53309;SDS011;39197;53.200;5.792;2023-04-24T02:01:26;9.25;;;8.45;;
53309;SDS011;39197;53.200;5.792;2023-04-24T02:03:52;11.77;;;10.65;;
53309;SDS011;39197;53.200;5.792;2023-04-24T02:06:17;11.48;;;10.38;;
53309;SDS011;39197;53.200;5.792;2023-04-24T02:08:43;11.52;;;10.32;;
53309;SDS011;39197;53.200;5.792;2023-04-24T02:11:09;11.07;;;10.07;;
53309;SDS011;39197;53.200;5.792;2023-04-24T02:13:35;11.55;;;10.60;;
53309;SDS011;39197;53.200;5.792;2023-04-24T02:16:00;12.38;;;10.05;;
53309;SDS011;39197;53.200;5.792;2023-04-24T02:18:26;11.73;;;10.60;;
53309;SDS011;39197;53.200;5.792;2023-04-24T02:20:52;10.88;;;9.80;;
53309;SDS011;39197;53.200;5.792;2023-04-24T02:23:18;11.93;;;8.52;;
53309;SDS011;39197;53.200;5.792;2023-04-24T02:25:43;10.73;;;9.63;;
53309;SDS011;39197;53.200;5.792;2023-04-24T02:28:09;10.35;;;9.40;;
53309;SDS011;39197;53.200;5.792;2023-04-24T02:30:34;8.73;;;7.93;;
53309;SDS011;39197;53.200;5.792;2023-04-24T02:33:00;9.07;;;8.18;;
53309;SDS011;39197;53.200;5.792;2023-04-24T02:35:25;7.13;;;6.35;;
53309;SDS011;39197;53.200;5.792;2023-04-24T02:37:51;4.15;;;3.75;;
53309;SDS011;39197;53.200;5.792;2023-04-24T02:40:17;3.60;;;3.30;;
53309;SDS011;39197;53.200;5.792;2023-04-24T02:42:42;3.00;;;2.70;;
53309;SDS011;39197;53.200;5.792;2023-04-24T02:45:08;2.70;;;2.20;;
53309;SDS011;39197;53.200;5.792;2023-04-24T02:47:34;2.88;;;2.58;;
53309;SDS011;39197;53.200;5.792;2023-04-24T02:50:00;4.63;;;3.78;;
53309;SDS011;39197;53.200;5.792;2023-04-24T02:52:26;5.07;;;4.05;;
53309;SDS011;39197;53.200;5.792;2023-04-24T02:54:51;4.85;;;4.45;;
53309;SDS011;39197;53.200;5.792;2023-04-24T02:57:18;5.60;;;5.05;;
53309;SDS011;39197;53.200;5.792;2023-04-24T02:59:44;5.78;;;5.25;;
53309;SDS011;39197;53.200;5.792;2023-04-24T03:02:09;7.30;;;4.68;;
53309;SDS011;39197;53.200;5.792;2023-04-24T03:04:35;4.72;;;4.32;;
53309;SDS011;39197;53.200;5.792;2023-04-24T03:07:01;4.65;;;4.03;;
53309;SDS011;39197;53.200;5.792;2023-04-24T03:09:27;2.83;;;2.60;;
53309;SDS011;39197;53.200;5.792;2023-04-24T03:11:52;2.78;;;2.40;;
53309;SDS011;39197;53.200;5.792;2023-04-24T03:14:18;3.63;;;2.90;;
53309;SDS011;39197;53.200;5.792;2023-04-24T03:16:43;4.10;;;2.00;;
53309;SDS011;39197;53.200;5.792;2023-04-24T03:19:09;3.42;;;1.80;;
53309;SDS011;39197;53.200;5.792;2023-04-24T03:21:35;3.78;;;1.88;;
53309;SDS011;39197;53.200;5.792;2023-04-24T03:24:05;2.78;;;1.92;;
53309;SDS011;39197;53.200;5.792;2023-04-24T03:26:31;2.70;;;1.77;;
53309;SDS011;39197;53.200;5.792;2023-04-24T03:28:57;4.32;;;2.90;;
53309;SDS011;39197;53.200;5.792;2023-04-24T03:31:23;4.97;;;3.55;;
53309;SDS011;39197;53.200;5.792;2023-04-24T03:33:48;4.55;;;3.97;;
53309;SDS011;39197;53.200;5.792;2023-04-24T03:36:14;8.35;;;4.72;;
53309;SDS011;39197;53.200;5.792;2023-04-24T03:38:40;6.80;;;5.65;;
53309;SDS011;39197;53.200;5.792;2023-04-24T03:41:05;9.30;;;5.65;;
53309;SDS011;39197;53.200;5.792;2023-04-24T03:43:31;7.28;;;5.93;;
53309;SDS011;39197;53.200;5.792;2023-04-24T03:45:58;7.78;;;7.00;;
53309;SDS011;39197;53.200;5.792;2023-04-24T03:48:23;6.50;;;5.65;;
53309;SDS011;39197;53.200;5.792;2023-04-24T03:50:49;5.85;;;5.25;;
53309;SDS011;39197;53.200;5.792;2023-04-24T03:53:15;6.47;;;5.00;;
53309;SDS011;39197;53.200;5.792;2023-04-24T03:55:40;4.95;;;4.10;;
53309;SDS011;39197;53.200;5.792;2023-04-24T03:58:06;5.85;;;4.38;;
53309;SDS011;39197;53.200;5.792;2023-04-24T04:00:32;6.53;;;5.10;;
53309;SDS011;39197;53.200;5.792;2023-04-24T04:02:58;4.35;;;3.95;;
53309;SDS011;39197;53.200;5.792;2023-04-24T04:05:23;5.85;;;4.32;;
53309;SDS011;39197;53.200;5.792;2023-04-24T04:07:49;8.73;;;4.57;;
53309;SDS011;39197;53.200;5.792;2023-04-24T04:10:15;5.03;;;4.07;;
53309;SDS011;39197;53.200;5.792;2023-04-24T04:12:42;6.40;;;5.72;;
53309;SDS011;39197;53.200;5.792;2023-04-24T04:15:07;7.50;;;6.20;;
53309;SDS011;39197;53.200;5.792;2023-04-24T04:17:33;10.85;;;7.85;;
53309;SDS011;39197;53.200;5.792;2023-04-24T04:19:59;10.00;;;7.93;;
53309;SDS011;39197;53.200;5.792;2023-04-24T04:22:25;9.32;;;7.40;;
53309;SDS011;39197;53.200;5.792;2023-04-24T04:24:50;8.02;;;7.22;;
53309;SDS011;39197;53.200;5.792;2023-04-24T04:27:16;8.57;;;7.68;;
53309;SDS011;39197;53.200;5.792;2023-04-24T04:29:43;8.27;;;6.65;;
53309;SDS011;39197;53.200;5.792;2023-04-24T04:32:09;6.40;;;4.60;;
53309;SDS011;39197;53.200;5.792;2023-04-24T04:34:35;3.90;;;2.80;;
53309;SDS011;39197;53.200;5.792;2023-04-24T04:37:02;2.40;;;1.70;;
53309;SDS011;39197;53.200;5.792;2023-04-24T04:39:28;2.25;;;1.00;;
53309;SDS011;39197;53.200;5.792;2023-04-24T04:41:54;3.53;;;1.27;;
53309;SDS011;39197;53.200;5.792;2023-04-24T04:44:20;2.38;;;1.17;;
53309;SDS011;39197;53.200;5.792;2023-04-24T04:46:46;3.20;;;2.67;;
53309;SDS011;39197;53.200;5.792;2023-04-24T04:49:12;7.18;;;3.80;;
53309;SDS011;39197;53.200;5.792;2023-04-24T04:51:41;9.23;;;5.43;;
53309;SDS011;39197;53.200;5.792;2023-04-24T04:54:07;10.95;;;6.28;;
53309;SDS011;39197;53.200;5.792;2023-04-24T04:56:32;9.30;;;7.70;;
53309;SDS011;39197;53.200;5.792;2023-04-24T04:58:58;11.43;;;8.57;;
53309;SDS011;39197;53.200;5.792;2023-04-24T05:01:24;14.88;;;9.57;;
53309;SDS011;39197;53.200;5.792;2023-04-24T05:03:52;13.02;;;8.90;;
53309;SDS011;39197;53.200;5.792;2023-04-24T05:06:18;13.02;;;9.00;;
53309;SDS011;39197;53.200;5.792;2023-04-24T05:08:43;12.38;;;8.98;;
53309;SDS011;39197;53.200;5.792;2023-04-24T05:11:09;9.60;;;7.90;;
53309;SDS011;39197;53.200;5.792;2023-04-24T05:13:35;12.18;;;6.63;;
53309;SDS011;39197;53.200;5.792;2023-04-24T05:16:00;7.18;;;4.30;;
53309;SDS011;39197;53.200;5.792;2023-04-24T05:18:26;6.55;;;3.20;;
53309;SDS011;39197;53.200;5.792;2023-04-24T05:20:51;6.47;;;2.97;;
53309;SDS011;39197;53.200;5.792;2023-04-24T05:23:17;5.38;;;2.85;;
53309;SDS011;39197;53.200;5.792;2023-04-24T05:25:42;4.95;;;2.58;;
53309;SDS011;39197;53.200;5.792;2023-04-24T05:28:08;3.05;;;2.40;;
53309;SDS011;39197;53.200;5.792;2023-04-24T05:30:34;4.30;;;2.90;;
53309;SDS011;39197;53.200;5.792;2023-04-24T05:32:59;4.90;;;2.63;;
53309;SDS011;39197;53.200;5.792;2023-04-24T05:35:25;5.20;;;3.10;;
53309;SDS011;39197;53.200;5.792;2023-04-24T05:37:51;4.50;;;3.03;;
53309;SDS011;39197;53.200;5.792;2023-04-24T05:40:16;4.85;;;2.60;;
53309;SDS011;39197;53.200;5.792;2023-04-24T05:42:42;6.60;;;2.55;;
53309;SDS011;39197;53.200;5.792;2023-04-24T05:45:07;5.38;;;1.80;;
53309;SDS011;39197;53.200;5.792;2023-04-24T05:47:34;4.82;;;1.80;;
53309;SDS011;39197;53.200;5.792;2023-04-24T05:50:00;1.65;;;1.30;;
53309;SDS011;39197;53.200;5.792;2023-04-24T05:52:25;5.93;;;1.70;;
53309;SDS011;39197;53.200;5.792;2023-04-24T05:54:51;3.33;;;1.60;;
53309;SDS011;39197;53.200;5.792;2023-04-24T05:57:16;4.00;;;1.60;;
53309;SDS011;39197;53.200;5.792;2023-04-24T05:59:42;6.38;;;2.25;;
53309;SDS011;39197;53.200;5.792;2023-04-24T06:02:07;5.28;;;2.20;;
53309;SDS011;39197;53.200;5.792;2023-04-24T06:04:33;6.95;;;1.88;;
53309;SDS011;39197;53.200;5.792;2023-04-24T06:06:59;5.40;;;1.70;;
53309;SDS011;39197;53.200;5.792;2023-04-24T06:09:25;5.32;;;1.70;;
53309;SDS011;39197;53.200;5.792;2023-04-24T06:11:51;4.00;;;1.20;;
53309;SDS011;39197;53.200;5.792;2023-04-24T06:14:21;3.70;;;1.10;;
53309;SDS011;39197;53.200;5.792;2023-04-24T06:16:47;4.35;;;0.88;;
53309;SDS011;39197;53.200;5.792;2023-04-24T06:19:13;7.45;;;1.30;;
53309;SDS011;39197;53.200;5.792;2023-04-24T06:21:38;6.60;;;1.27;;
53309;SDS011;39197;53.200;5.792;2023-04-24T06:24:04;5.88;;;1.60;;
53309;SDS011;39197;53.200;5.792;2023-04-24T06:26:30;4.47;;;1.63;;
53309;SDS011;39197;53.200;5.792;2023-04-24T06:28:55;10.45;;;3.97;;
53309;SDS011;39197;53.200;5.792;2023-04-24T06:31:23;10.68;;;5.05;;
53309;SDS011;39197;53.200;5.792;2023-04-24T06:33:49;9.05;;;5.45;;
53309;SDS011;39197;53.200;5.792;2023-04-24T06:36:14;13.60;;;7.30;;
53309;SDS011;39197;53.200;5.792;2023-04-24T06:38:40;15.68;;;9.82;;
53309;SDS011;39197;53.200;5.792;2023-04-24T06:41:06;15.90;;;10.93;;
53309;SDS011;39197;53.200;5.792;2023-04-24T06:43:32;18.27;;;11.38;;
53309;SDS011;39197;53.200;5.792;2023-04-24T06:45:59;22.30;;;13.02;;
53309;SDS011;39197;53.200;5.792;2023-04-24T06:48:25;23.45;;;14.65;;
53309;SDS011;39197;53.200;5.792;2023-04-24T06:50:51;20.95;;;12.18;;
53309;SDS011;39197;53.200;5.792;2023-04-24T06:53:17;22.13;;;12.77;;
53309;SDS011;39197;53.200;5.792;2023-04-24T06:55:43;17.25;;;12.45;;
53309;SDS011;39197;53.200;5.792;2023-04-24T06:58:10;17.92;;;10.63;;
53309;SDS011;39197;53.200;5.792;2023-04-24T07:00:36;13.38;;;9.48;;
53309;SDS011;39197;53.200;5.792;2023-04-24T07:03:02;13.40;;;9.23;;
53309;SDS011;39197;53.200;5.792;2023-04-24T07:05:30;21.38;;;10.77;;
53309;SDS011;39197;53.200;5.792;2023-04-24T07:07:55;21.38;;;11.35;;
53309;SDS011;39197;53.200;5.792;2023-04-24T07:10:23;18.17;;;11.50;;
53309;SDS011;39197;53.200;5.792;2023-04-24T07:12:49;20.83;;;13.30;;
53309;SDS011;39197;53.200;5.792;2023-04-24T07:15:15;18.95;;;13.60;;
53309;SDS011;39197;53.200;5.792;2023-04-24T07:17:41;20.92;;;13.02;;
53309;SDS011;39197;53.200;5.792;2023-04-24T07:20:10;20.45;;;12.57;;
53309;SDS011;39197;53.200;5.792;2023-04-24T07:22:37;16.27;;;13.40;;
53309;SDS011;39197;53.200;5.792;2023-04-24T07:25:03;23.23;;;14.57;;
53309;SDS011;39197;53.200;5.792;2023-04-24T07:27:30;20.67;;;15.07;;
53309;SDS011;39197;53.200;5.792;2023-04-24T07:29:55;16.75;;;13.35;;
53309;SDS011;39197;53.200;5.792;2023-04-24T07:32:21;23.40;;;12.15;;
53309;SDS011;39197;53.200;5.792;2023-04-24T07:34:46;14.60;;;10.40;;
53309;SDS011;39197;53.200;5.792;2023-04-24T07:37:12;14.25;;;9.13;;
53309;SDS011;39197;53.200;5.792;2023-04-24T07:39:38;15.15;;;9.02;;
53309;SDS011;39197;53.200;5.792;2023-04-24T07:42:03;12.95;;;7.85;;
53309;SDS011;39197;53.200;5.792;2023-04-24T07:44:29;14.70;;;7.68;;
53309;SDS011;39197;53.200;5.792;2023-04-24T07:46:55;13.15;;;6.78;;
53309;SDS011;39197;53.200;5.792;2023-04-24T07:49:21;13.10;;;5.55;;
53309;SDS011;39197;53.200;5.792;2023-04-24T07:51:46;16.83;;;8.07;;
53309;SDS011;39197;53.200;5.792;2023-04-24T07:54:14;10.77;;;6.07;;
53309;SDS011;39197;53.200;5.792;2023-04-24T07:56:40;10.98;;;6.07;;
53309;SDS011;39197;53.200;5.792;2023-04-24T07:59:07;14.75;;;5.30;;
53309;SDS011;39197;53.200;5.792;2023-04-24T08:01:35;12.88;;;4.95;;
53309;SDS011;39197;53.200;5.792;2023-04-24T08:04:00;12.98;;;5.25;;
53309;SDS011;39197;53.200;5.792;2023-04-24T08:06:26;12.73;;;5.03;;
53309;SDS011;39197;53.200;5.792;2023-04-24T08:08:56;10.25;;;4.40;;
53309;SDS011;39197;53.200;5.792;2023-04-24T08:11:23;12.52;;;5.47;;
53309;SDS011;39197;53.200;5.792;2023-04-24T08:13:49;8.68;;;4.40;;
53309;SDS011;39197;53.200;5.792;2023-04-24T08:16:15;12.80;;;5.28;;
53309;SDS011;39197;53.200;5.792;2023-04-24T08:18:40;10.25;;;5.22;;
53309;SDS011;39197;53.200;5.792;2023-04-24T08:21:06;10.23;;;5.75;;
53309;SDS011;39197;53.200;5.792;2023-04-24T08:23:31;13.25;;;4.95;;
53309;SDS011;39197;53.200;5.792;2023-04-24T08:25:57;20.08;;;5.95;;
53309;SDS011;39197;53.200;5.792;2023-04-24T08:28:23;9.48;;;5.03;;
53309;SDS011;39197;53.200;5.792;2023-04-24T08:30:49;13.98;;;5.72;;
53309;SDS011;39197;53.200;5.792;2023-04-24T08:33:19;11.25;;;4.65;;
53309;SDS011;39197;53.200;5.792;2023-04-24T08:35:48;11.95;;;4.85;;
53309;SDS011;39197;53.200;5.792;2023-04-24T08:38:14;11.07;;;4.15;;
53309;SDS011;39197;53.200;5.792;2023-04-24T08:40:40;19.48;;;4.93;;
53309;SDS011;39197;53.200;5.792;2023-04-24T08:43:06;8.50;;;3.53;;
53309;SDS011;39197;53.200;5.792;2023-04-24T08:45:32;13.05;;;4.93;;
53309;SDS011;39197;53.200;5.792;2023-04-24T08:47:58;12.02;;;3.38;;
53309;SDS011;39197;53.200;5.792;2023-04-24T08:50:24;11.98;;;4.47;;
53309;SDS011;39197;53.200;5.792;2023-04-24T08:52:50;14.95;;;3.17;;
53309;SDS011;39197;53.200;5.792;2023-04-24T08:55:18;8.52;;;2.80;;
53309;SDS011;39197;53.200;5.792;2023-04-24T08:57:45;8.38;;;2.75;;
53309;SDS011;39197;53.200;5.792;2023-04-24T09:00:15;7.32;;;2.28;;
53309;SDS011;39197;53.200;5.792;2023-04-24T09:02:42;7.13;;;2.65;;
53309;SDS011;39197;53.200;5.792;2023-04-24T09:05:08;10.05;;;2.63;;
53309;SDS011;39197;53.200;5.792;2023-04-24T09:07:35;8.77;;;2.83;;
53309;SDS011;39197;53.200;5.792;2023-04-24T09:10:03;9.73;;;2.35;;
53309;SDS011;39197;53.200;5.792;2023-04-24T09:12:30;10.98;;;2.78;;
53309;SDS011;39197;53.200;5.792;2023-04-24T09:14:56;13.05;;;2.33;;
53309;SDS011;39197;53.200;5.792;2023-04-24T09:17:21;11.13;;;2.08;;
53309;SDS011;39197;53.200;5.792;2023-04-24T09:19:48;14.13;;;2.63;;
53309;SDS011;39197;53.200;5.792;2023-04-24T09:22:15;12.07;;;2.15;;
53309;SDS011;39197;53.200;5.792;2023-04-24T09:24:41;13.75;;;2.20;;
53309;SDS011;39197;53.200;5.792;2023-04-24T09:27:06;12.18;;;2.60;;
53309;SDS011;39197;53.200;5.792;2023-04-24T09:29:32;10.25;;;2.63;;
53309;SDS011;39197;53.200;5.792;2023-04-24T09:31:58;13.80;;;2.72;;
53309;SDS011;39197;53.200;5.792;2023-04-24T09:34:27;9.80;;;1.77;;
53309;SDS011;39197;53.200;5.792;2023-04-24T09:36:53;7.90;;;2.00;;
53309;SDS011;39197;53.200;5.792;2023-04-24T09:39:19;9.20;;;2.60;;
53309;SDS011;39197;53.200;5.792;2023-04-24T09:41:46;8.95;;;2.88;;
53309;SDS011;39197;53.200;5.792;2023-04-24T09:44:13;12.10;;;1.98;;
53309;SDS011;39197;53.200;5.792;2023-04-24T09:46:44;10.23;;;1.63;;
53309;SDS011;39197;53.200;5.792;2023-04-24T09:49:14;9.55;;;1.40;;
53309;SDS011;39197;53.200;5.792;2023-04-24T09:51:41;7.95;;;2.08;;
53309;SDS011;39197;53.200;5.792;2023-04-24T09:54:14;11.40;;;1.70;;
53309;SDS011;39197;53.200;5.792;2023-04-24T09:56:44;9.63;;;1.30;;
53309;SDS011;39197;53.200;5.792;2023-04-24T09:59:13;10.75;;;1.77;;
53309;SDS011;39197;53.200;5.792;2023-04-24T10:01:39;12.52;;;1.83;;
53309;SDS011;39197;53.200;5.792;2023-04-24T10:04:14;8.82;;;1.33;;
53309;SDS011;39197;53.200;5.792;2023-04-24T10:06:44;12.45;;;1.38;;
53309;SDS011;39197;53.200;5.792;2023-04-24T10:09:10;11.82;;;1.52;;
53309;SDS011;39197;53.200;5.792;2023-04-24T10:11:37;14.50;;;2.10;;
53309;SDS011;39197;53.200;5.792;2023-04-24T10:14:11;12.18;;;1.77;;
53309;SDS011;39197;53.200;5.792;2023-04-24T10:16:42;7.72;;;1.63;;
53309;SDS011;39197;53.200;5.792;2023-04-24T10:19:09;8.90;;;1.70;;
53309;SDS011;39197;53.200;5.792;2023-04-24T10:21:35;12.90;;;3.85;;
53309;SDS011;39197;53.200;5.792;2023-04-24T10:24:07;11.10;;;1.40;;
53309;SDS011;39197;53.200;5.792;2023-04-24T10:26:37;9.90;;;1.38;;
53309;SDS011;39197;53.200;5.792;2023-04-24T10:29:05;12.57;;;1.73;;
53309;SDS011;39197;53.200;5.792;2023-04-24T10:31:35;10.30;;;1.48;;
53309;SDS011;39197;53.200;5.792;2023-04-24T10:34:02;9.48;;;1.60;;
53309;SDS011;39197;53.200;5.792;2023-04-24T10:36:29;6.22;;;0.88;;
53309;SDS011;39197;53.200;5.792;2023-04-24T10:38:57;9.45;;;1.70;;
53309;SDS011;39197;53.200;5.792;2023-04-24T10:41:25;12.73;;;1.67;;
53309;SDS011;39197;53.200;5.792;2023-04-24T10:44:07;12.35;;;2.65;;
53309;SDS011;39197;53.200;5.792;2023-04-24T10:46:33;13.05;;;1.88;;
53309;SDS011;39197;53.200;5.792;2023-04-24T10:48:59;12.00;;;1.30;;
53309;SDS011;39197;53.200;5.792;2023-04-24T10:51:46;10.75;;;1.60;;
53309;SDS011;39197;53.200;5.792;2023-04-24T10:54:23;8.15;;;1.30;;
53309;SDS011;39197;53.200;5.792;2023-04-24T10:56:52;6.78;;;1.00;;
53309;SDS011;39197;53.200;5.792;2023-04-24T10:59:25;6.80;;;1.13;;
53309;SDS011;39197;53.200;5.792;2023-04-24T11:01:53;7.72;;;1.25;;
53309;SDS011;39197;53.200;5.792;2023-04-24T11:04:29;6.75;;;1.50;;
53309;SDS011;39197;53.200;5.792;2023-04-24T11:06:56;7.30;;;0.90;;
53309;SDS011;39197;53.200;5.792;2023-04-24T11:09:22;9.65;;;1.70;;
53309;SDS011;39197;53.200;5.792;2023-04-24T11:12:10;5.80;;;1.00;;
53309;SDS011;39197;53.200;5.792;2023-04-24T11:17:27;12.02;;;1.20;;
53309;SDS011;39197;53.200;5.792;2023-04-24T11:20:09;5.40;;;1.10;;
53309;SDS011;39197;53.200;5.792;2023-04-24T11:22:37;10.43;;;1.10;;
53309;SDS011;39197;53.200;5.792;2023-04-24T11:25:07;8.98;;;1.63;;
53309;SDS011;39197;53.200;5.792;2023-04-24T11:27:43;4.68;;;0.70;;
53309;SDS011;39197;53.200;5.792;2023-04-24T11:30:11;4.13;;;0.55;;
53309;SDS011;39197;53.200;5.792;2023-04-24T11:32:38;4.18;;;0.40;;
53309;SDS011;39197;53.200;5.792;2023-04-24T11:35:06;8.70;;;1.13;;
53309;SDS011;39197;53.200;5.792;2023-04-24T11:37:39;8.75;;;2.50;;
53309;SDS011;39197;53.200;5.792;2023-04-24T11:40:10;6.28;;;1.02;;
53309;SDS011;39197;53.200;5.792;2023-04-24T11:42:37;6.90;;;0.85;;
53309;SDS011;39197;53.200;5.792;2023-04-24T11:45:07;5.18;;;0.75;;
53309;SDS011;39197;53.200;5.792;2023-04-24T11:47:35;6.40;;;1.00;;
53309;SDS011;39197;53.200;5.792;2023-04-24T11:50:01;10.80;;;0.88;;
53309;SDS011;39197;53.200;5.792;2023-04-24T11:52:28;7.63;;;0.70;;
53309;SDS011;39197;53.200;5.792;2023-04-24T11:54:54;4.10;;;1.00;;
53309;SDS011;39197;53.200;5.792;2023-04-24T11:57:21;4.78;;;0.50;;
53309;SDS011;39197;53.200;5.792;2023-04-24T11:59:49;7.53;;;0.68;;
53309;SDS011;39197;53.200;5.792;2023-04-24T12:04:47;9.95;;;1.08;;
53309;SDS011;39197;53.200;5.792;2023-04-24T12:07:13;8.10;;;0.68;;
53309;SDS011;39197;53.200;5.792;2023-04-24T12:09:42;6.88;;;1.40;;
53309;SDS011;39197;53.200;5.792;2023-04-24T12:12:09;5.55;;;0.77;;
53309;SDS011;39197;53.200;5.792;2023-04-24T12:14:43;6.35;;;1.00;;
53309;SDS011;39197;53.200;5.792;2023-04-24T12:17:12;5.30;;;0.60;;
53309;SDS011;39197;53.200;5.792;2023-04-24T12:19:44;4.82;;;0.65;;
53309;SDS011;39197;53.200;5.792;2023-04-24T12:22:15;4.82;;;0.82;;
53309;SDS011;39197;53.200;5.792;2023-04-24T12:25:01;6.57;;;0.73;;
53309;SDS011;39197;53.200;5.792;2023-04-24T12:27:32;3.13;;;0.52;;
53309;SDS011;39197;53.200;5.792;2023-04-24T12:29:58;5.80;;;0.70;;
53309;SDS011;39197;53.200;5.792;2023-04-24T12:32:28;5.30;;;0.93;;
53309;SDS011;39197;53.200;5.792;2023-04-24T12:35:00;3.90;;;0.50;;
53309;SDS011;39197;53.200;5.792;2023-04-24T12:37:32;3.58;;;0.30;;
53309;SDS011;39197;53.200;5.792;2023-04-24T12:40:03;8.15;;;0.73;;
53309;SDS011;39197;53.200;5.792;2023-04-24T12:42:36;8.25;;;0.45;;
53309;SDS011;39197;53.200;5.792;2023-04-24T12:45:14;6.18;;;1.58;;
53309;SDS011;39197;53.200;5.792;2023-04-24T12:47:49;5.78;;;1.00;;
53309;SDS011;39197;53.200;5.792;2023-04-24T12:50:18;4.47;;;1.13;;
53309;SDS011;39197;53.200;5.792;2023-04-24T12:52:55;6.00;;;0.82;;
53309;SDS011;39197;53.200;5.792;2023-04-24T12:55:27;4.35;;;0.40;;
53309;SDS011;39197;53.200;5.792;2023-04-24T12:58:26;3.42;;;0.40;;
53309;SDS011;39197;53.200;5.792;2023-04-24T13:00:57;8.10;;;0.60;;
53309;SDS011;39197;53.200;5.792;2023-04-24T13:03:23;9.82;;;0.93;;
53309;SDS011;39197;53.200;5.792;2023-04-24T13:05:49;7.10;;;1.20;;
53309;SDS011;39197;53.200;5.792;2023-04-24T13:08:15;7.13;;;1.25;;
53309;SDS011;39197;53.200;5.792;2023-04-24T13:10:40;8.90;;;1.17;;
53309;SDS011;39197;53.200;5.792;2023-04-24T13:13:06;9.18;;;1.70;;
53309;SDS011;39197;53.200;5.792;2023-04-24T13:15:32;10.88;;;1.67;;
53309;SDS011;39197;53.200;5.792;2023-04-24T13:17:58;8.55;;;2.38;;
53309;SDS011;39197;53.200;5.792;2023-04-24T13:20:23;11.77;;;2.55;;
53309;SDS011;39197;53.200;5.792;2023-04-24T13:22:49;12.48;;;2.00;;
53309;SDS011;39197;53.200;5.792;2023-04-24T13:25:14;10.38;;;1.65;;
53309;SDS011;39197;53.200;5.792;2023-04-24T13:27:42;20.40;;;3.65;;
53309;SDS011;39197;53.200;5.792;2023-04-24T13:30:07;9.13;;;1.38;;
53309;SDS011;39197;53.200;5.792;2023-04-24T13:32:33;12.48;;;1.90;;
53309;SDS011;39197;53.200;5.792;2023-04-24T13:35:00;6.45;;;0.80;;
53309;SDS011;39197;53.200;5.792;2023-04-24T13:37:25;3.63;;;0.40;;
53309;SDS011;39197;53.200;5.792;2023-04-24T13:39:51;8.82;;;1.35;;
53309;SDS011;39197;53.200;5.792;2023-04-24T13:42:17;5.32;;;1.35;;
53309;SDS011;39197;53.200;5.792;2023-04-24T13:44:43;10.38;;;1.17;;
53309;SDS011;39197;53.200;5.792;2023-04-24T13:47:09;5.20;;;0.73;;
53309;SDS011;39197;53.200;5.792;2023-04-24T13:49:35;9.10;;;1.10;;
53309;SDS011;39197;53.200;5.792;2023-04-24T13:52:00;8.23;;;1.17;;
53309;SDS011;39197;53.200;5.792;2023-04-24T13:54:26;8.00;;;1.45;;
53309;SDS011;39197;53.200;5.792;2023-04-24T13:56:52;10.85;;;1.95;;
53309;SDS011;39197;53.200;5.792;2023-04-24T13:59:19;13.65;;;1.95;;
53309;SDS011;39197;53.200;5.792;2023-04-24T14:01:46;11.48;;;1.42;;
53309;SDS011;39197;53.200;5.792;2023-04-24T14:04:12;10.20;;;1.50;;
53309;SDS011;39197;53.200;5.792;2023-04-24T14:06:38;10.55;;;1.60;;
53309;SDS011;39197;53.200;5.792;2023-04-24T14:09:03;14.40;;;2.50;;
53309;SDS011;39197;53.200;5.792;2023-04-24T14:11:29;12.35;;;1.75;;
53309;SDS011;39197;53.200;5.792;2023-04-24T14:13:55;12.27;;;2.05;;
53309;SDS011;39197;53.200;5.792;2023-04-24T14:16:23;10.68;;;1.65;;
53309;SDS011;39197;53.200;5.792;2023-04-24T14:18:49;14.90;;;2.28;;
53309;SDS011;39197;53.200;5.792;2023-04-24T14:21:15;11.95;;;2.25;;
53309;SDS011;39197;53.200;5.792;2023-04-24T14:23:41;15.98;;;2.25;;
53309;SDS011;39197;53.200;5.792;2023-04-24T14:26:06;16.48;;;2.28;;
53309;SDS011;39197;53.200;5.792;2023-04-24T14:28:32;17.80;;;2.92;;
53309;SDS011;39197;53.200;5.792;2023-04-24T14:30:58;14.25;;;2.03;;
53309;SDS011;39197;53.200;5.792;2023-04-24T14:33:24;8.27;;;1.80;;
53309;SDS011;39197;53.200;5.792;2023-04-24T14:35:50;14.68;;;2.78;;
53309;SDS011;39197;53.200;5.792;2023-04-24T14:38:15;12.98;;;2.00;;
53309;SDS011;39197;53.200;5.792;2023-04-24T14:40:41;12.85;;;2.28;;
53309;SDS011;39197;53.200;5.792;2023-04-24T14:43:07;12.43;;;2.65;;
53309;SDS011;39197;53.200;5.792;2023-04-24T14:45:32;9.88;;;1.63;;